Time;durP1;ratioP1;P1;durP2;ratioP2;P2;SDS_P1;SDS_P2;PMS_P1;PMS_P2;Temp;Humidity;BMP_temperature;BMP_pressure;BME280_temperature;BME280_humidity;BME280_pressure;Samples;Min_cycle;Max_cycle;Signal;HPM_P1;HPM_P2
2022/01/04 00:01:12;;;;;;;0.20;0.20;;;;;;;;;;1780253;77;26333;-32
2022/01/04 00:03:40;;;;;;;0.40;0.40;;;;;;;;;;1780348;79;26344;-33
2022/01/04 00:06:08;;;;;;;0.55;0.30;;;;;;;;;;1769849;79;26329;-35
2022/01/04 00:08:36;;;;;;;0.68;0.40;;;;;;;;;;1773094;79;26353;-32
2022/01/04 00:11:18;;;;;;;0.53;0.40;;;;;;;;;;1777538;79;26301;-32
2022/01/04 00:13:45;;;;;;;0.15;0.15;;;;;;;;;;1765046;79;26372;-31
2022/01/04 00:16:12;;;;;;;0.35;0.30;;;;;;;;;;1772830;79;26281;-31
2022/01/04 00:18:40;;;;;;;0.30;0.20;;;;;;;;;;1766046;79;26293;-32
2022/01/04 00:21:08;;;;;;;0.37;0.37;;;;;;;;;;1786602;79;26271;-31
2022/01/04 00:23:35;;;;;;;0.30;0.30;;;;;;;;;;1779545;79;26763;-35
2022/01/04 00:26:03;;;;;;;0.30;0.30;;;;;;;;;;1758899;79;26313;-35
2022/01/04 00:28:30;;;;;;;0.55;0.40;;;;;;;;;;1775811;79;26281;-33
2022/01/04 00:30:58;;;;;;;0.47;0.47;;;;;;;;;;1764585;79;26302;-32
2022/01/04 00:33:25;;;;;;;0.50;0.50;;;;;;;;;;1775702;79;26791;-32
2022/01/04 00:35:52;;;;;;;0.30;0.30;;;;;;;;;;1776645;79;26690;-33
2022/01/04 00:38:20;;;;;;;0.45;0.45;;;;;;;;;;1780546;79;26345;-30
2022/01/04 00:40:47;;;;;;;0.30;0.30;;;;;;;;;;1782861;79;26746;-32
2022/01/04 00:43:14;;;;;;;0.53;0.42;;;;;;;;;;1768871;79;26291;-33
2022/01/04 00:45:42;;;;;;;0.50;0.50;;;;;;;;;;1772008;79;26371;-33
2022/01/04 00:50:38;;;;;;;0.50;0.50;;;;;;;;;;1771648;79;26747;-32
2022/01/04 00:53:06;;;;;;;0.30;0.30;;;;;;;;;;1768622;79;26371;-33
2022/01/04 00:55:34;;;;;;;0.40;0.40;;;;;;;;;;1760953;80;26849;-35
2022/01/04 00:58:03;;;;;;;0.40;0.40;;;;;;;;;;1758678;79;26281;-32
2022/01/04 01:00:30;;;;;;;0.40;0.40;;;;;;;;;;1784722;79;26704;-36
2022/01/04 01:02:58;;;;;;;0.37;0.37;;;;;;;;;;1758777;80;26349;-34
2022/01/04 01:05:26;;;;;;;0.40;0.40;;;;;;;;;;1781707;79;26699;-35
2022/01/04 01:07:55;;;;;;;0.40;0.40;;;;;;;;;;1757548;79;26683;-32
2022/01/04 01:10:40;;;;;;;0.45;0.45;;;;;;;;;;1773907;79;26144;-34
2022/01/04 01:12:52;;;;;;;0.40;0.40;;;;;;;;;;1762275;79;26294;-33
2022/01/04 01:15:20;;;;;;;0.80;0.53;;;;;;;;;;1757801;80;26297;-34
2022/01/04 01:17:47;;;;;;;0.80;0.50;;;;;;;;;;1775343;79;26261;-32
2022/01/04 01:20:15;;;;;;;0.30;0.30;;;;;;;;;;1774081;79;26273;-33
2022/01/04 01:22:43;;;;;;;0.62;0.55;;;;;;;;;;1771655;79;26721;-32
2022/01/04 01:25:12;;;;;;;0.40;0.40;;;;;;;;;;1768502;80;26270;-33
2022/01/04 01:27:41;;;;;;;0.95;0.30;;;;;;;;;;1786209;80;26790;-34
2022/01/04 01:30:09;;;;;;;0.30;0.30;;;;;;;;;;1774693;79;26877;-34
2022/01/04 01:32:36;;;;;;;0.40;0.40;;;;;;;;;;1778198;79;26302;-33
2022/01/04 01:35:04;;;;;;;0.40;0.40;;;;;;;;;;1776598;79;26298;-32
2022/01/04 01:37:31;;;;;;;0.45;0.45;;;;;;;;;;1762684;79;26796;-32
2022/01/04 01:39:59;;;;;;;0.40;0.40;;;;;;;;;;1778039;79;26886;-32
2022/01/04 01:42:26;;;;;;;0.60;0.60;;;;;;;;;;1775414;79;26732;-33
2022/01/04 01:44:53;;;;;;;0.30;0.30;;;;;;;;;;1765854;79;27360;-31
2022/01/04 01:47:20;;;;;;;0.62;0.30;;;;;;;;;;1775122;80;26653;-32
2022/01/04 01:49:49;;;;;;;0.42;0.42;;;;;;;;;;1770309;79;26352;-32
2022/01/04 01:52:17;;;;;;;0.68;0.53;;;;;;;;;;1754586;80;26853;-33
2022/01/04 01:54:44;;;;;;;0.50;0.50;;;;;;;;;;1749289;80;26346;-31
2022/01/04 01:57:11;;;;;;;0.40;0.40;;;;;;;;;;1770742;81;26288;-33
2022/01/04 01:59:39;;;;;;;0.33;0.33;;;;;;;;;;1770404;79;26761;-33
2022/01/04 02:02:06;;;;;;;0.30;0.30;;;;;;;;;;1768685;79;26283;-33
2022/01/04 02:04:34;;;;;;;0.37;0.37;;;;;;;;;;1758190;80;26280;-33
2022/01/04 02:07:01;;;;;;;0.35;0.35;;;;;;;;;;1749198;80;26730;-32
2022/01/04 02:09:29;;;;;;;0.50;0.50;;;;;;;;;;1762113;79;26782;-36
2022/01/04 02:11:58;;;;;;;0.50;0.50;;;;;;;;;;1762481;80;25717;-35
2022/01/04 02:14:25;;;;;;;0.33;0.33;;;;;;;;;;1757794;80;26330;-33
2022/01/04 02:16:52;;;;;;;0.40;0.40;;;;;;;;;;1764144;80;26299;-33
2022/01/04 02:19:21;;;;;;;0.40;0.40;;;;;;;;;;1751320;80;26287;-34
2022/01/04 02:21:48;;;;;;;0.35;0.35;;;;;;;;;;1750656;81;25892;-32
2022/01/04 02:24:16;;;;;;;0.50;0.50;;;;;;;;;;1760171;80;26298;-35
2022/01/04 02:26:43;;;;;;;0.30;0.30;;;;;;;;;;1769299;80;26432;-32
2022/01/04 02:29:11;;;;;;;0.40;0.40;;;;;;;;;;1768293;80;26405;-35
2022/01/04 02:31:39;;;;;;;0.30;0.30;;;;;;;;;;1746562;80;26306;-32
2022/01/04 02:34:06;;;;;;;0.35;0.35;;;;;;;;;;1761974;80;26370;-33
2022/01/04 02:36:33;;;;;;;0.47;0.30;;;;;;;;;;1759493;79;26356;-33
2022/01/04 02:39:01;;;;;;;0.40;0.40;;;;;;;;;;1777602;78;26810;-32
2022/01/04 02:41:28;;;;;;;0.20;0.20;;;;;;;;;;1758164;81;26715;-32
2022/01/04 02:43:55;;;;;;;0.50;0.50;;;;;;;;;;1764507;80;26293;-33
2022/01/04 02:46:23;;;;;;;0.35;0.35;;;;;;;;;;1752930;80;26282;-30
2022/01/04 02:48:50;;;;;;;0.30;0.30;;;;;;;;;;1744316;80;26330;-33
2022/01/04 02:51:18;;;;;;;0.30;0.30;;;;;;;;;;1779512;79;26391;-33
2022/01/04 02:53:46;;;;;;;0.30;0.30;;;;;;;;;;1768218;79;26356;-31
2022/01/04 02:56:15;;;;;;;0.47;0.47;;;;;;;;;;1764402;79;26341;-33
2022/01/04 02:58:42;;;;;;;0.95;0.85;;;;;;;;;;1774689;80;26274;-34
2022/01/04 03:01:10;;;;;;;0.40;0.40;;;;;;;;;;1772985;79;26294;-33
2022/01/04 03:03:38;;;;;;;0.40;0.40;;;;;;;;;;1777395;80;26353;-31
2022/01/04 03:06:05;;;;;;;0.40;0.40;;;;;;;;;;1771110;79;26324;-32
2022/01/04 03:08:32;;;;;;;0.20;0.20;;;;;;;;;;1783373;79;26348;-33
2022/01/04 03:10:59;;;;;;;0.30;0.30;;;;;;;;;;1782866;79;26863;-32
2022/01/04 03:13:27;;;;;;;0.30;0.30;;;;;;;;;;1778833;79;26341;-32
2022/01/04 03:15:54;;;;;;;0.23;0.23;;;;;;;;;;1773758;79;26355;-32
2022/01/04 03:18:21;;;;;;;0.30;0.30;;;;;;;;;;1786413;79;26279;-33
2022/01/04 03:20:49;;;;;;;0.40;0.40;;;;;;;;;;1774510;79;26341;-32
2022/01/04 03:23:16;;;;;;;0.30;0.30;;;;;;;;;;1771366;79;26351;-32
2022/01/04 03:25:43;;;;;;;0.28;0.28;;;;;;;;;;1762255;80;26360;-34
2022/01/04 03:28:10;;;;;;;0.40;0.40;;;;;;;;;;1766933;79;26380;-32
2022/01/04 03:30:38;;;;;;;0.35;0.35;;;;;;;;;;1768822;79;26307;-34
2022/01/04 03:33:05;;;;;;;1.45;0.50;;;;;;;;;;1775634;79;26313;-34
2022/01/04 03:35:32;;;;;;;0.85;0.30;;;;;;;;;;1782560;79;26341;-33
2022/01/04 03:38:00;;;;;;;0.30;0.30;;;;;;;;;;1775221;79;26270;-33
2022/01/04 03:40:27;;;;;;;0.50;0.50;;;;;;;;;;1769265;79;26820;-32
2022/01/04 03:42:54;;;;;;;0.30;0.30;;;;;;;;;;1778357;79;26287;-35
2022/01/04 03:45:22;;;;;;;0.47;0.47;;;;;;;;;;1771844;79;26283;-34
2022/01/04 03:47:49;;;;;;;0.45;0.45;;;;;;;;;;1790126;77;26712;-31
2022/01/04 03:50:16;;;;;;;0.40;0.40;;;;;;;;;;1788525;78;26835;-32
2022/01/04 03:52:43;;;;;;;0.50;0.50;;;;;;;;;;1773386;79;26344;-31
2022/01/04 03:55:11;;;;;;;0.35;0.35;;;;;;;;;;1780732;79;26581;-32
2022/01/04 03:57:38;;;;;;;0.40;0.40;;;;;;;;;;1758564;79;26297;-34
2022/01/04 04:00:07;;;;;;;0.47;0.47;;;;;;;;;;1772599;79;26804;-32
2022/01/04 04:02:34;;;;;;;0.33;0.33;;;;;;;;;;1774271;79;26800;-33
2022/01/04 04:05:01;;;;;;;0.30;0.30;;;;;;;;;;1779944;79;27349;-35
2022/01/04 04:07:28;;;;;;;0.35;0.35;;;;;;;;;;1758792;79;26321;-35
2022/01/04 04:09:56;;;;;;;0.60;0.60;;;;;;;;;;1785009;79;26299;-35
2022/01/04 04:12:23;;;;;;;0.40;0.40;;;;;;;;;;1776099;79;26360;-35
2022/01/04 04:14:51;;;;;;;0.37;0.37;;;;;;;;;;1768899;79;26850;-32
2022/01/04 04:17:19;;;;;;;0.42;0.42;;;;;;;;;;1769998;79;26800;-33
2022/01/04 04:19:46;;;;;;;0.40;0.40;;;;;;;;;;1757979;80;26289;-32
2022/01/04 04:22:13;;;;;;;0.50;0.50;;;;;;;;;;1793011;79;26314;-35
2022/01/04 04:24:41;;;;;;;0.40;0.40;;;;;;;;;;1774597;79;26860;-33
2022/01/04 04:27:08;;;;;;;0.40;0.40;;;;;;;;;;1775297;79;26309;-32
2022/01/04 04:29:36;;;;;;;0.20;0.20;;;;;;;;;;1759984;79;26294;-31
2022/01/04 04:32:04;;;;;;;0.40;0.40;;;;;;;;;;1785652;80;26279;-33
2022/01/04 04:34:32;;;;;;;0.30;0.30;;;;;;;;;;1772042;79;26368;-35
2022/01/04 04:36:59;;;;;;;0.30;0.30;;;;;;;;;;1784384;80;26354;-33
2022/01/04 04:39:26;;;;;;;0.35;0.35;;;;;;;;;;1763359;80;26301;-32
2022/01/04 04:41:54;;;;;;;0.28;0.28;;;;;;;;;;1759395;79;26302;-31
2022/01/04 04:44:21;;;;;;;0.30;0.30;;;;;;;;;;1772222;79;26710;-33
2022/01/04 04:46:49;;;;;;;0.40;0.40;;;;;;;;;;1771796;79;26721;-34
2022/01/04 04:49:16;;;;;;;0.50;0.50;;;;;;;;;;1771121;79;26380;-33
2022/01/04 04:51:44;;;;;;;0.30;0.30;;;;;;;;;;1777622;79;26811;-33
2022/01/04 04:54:11;;;;;;;0.50;0.50;;;;;;;;;;1760134;80;26301;-32
2022/01/04 04:56:38;;;;;;;0.50;0.28;;;;;;;;;;1766138;80;26224;-31
2022/01/04 04:59:06;;;;;;;0.20;0.20;;;;;;;;;;1756911;79;26357;-36
2022/01/04 05:01:33;;;;;;;0.28;0.28;;;;;;;;;;1766146;79;26309;-35
2022/01/04 05:04:01;;;;;;;0.30;0.30;;;;;;;;;;1751980;80;26311;-35
2022/01/04 05:06:28;;;;;;;0.30;0.30;;;;;;;;;;1747102;80;26305;-35
2022/01/04 05:08:55;;;;;;;0.42;0.40;;;;;;;;;;1750055;79;26787;-34
2022/01/04 05:11:23;;;;;;;0.30;0.30;;;;;;;;;;1779010;78;26334;-35
2022/01/04 05:13:50;;;;;;;0.20;0.20;;;;;;;;;;1767312;80;26401;-33
2022/01/04 05:16:17;;;;;;;0.33;0.33;;;;;;;;;;1765393;80;26333;-32
2022/01/04 05:18:45;;;;;;;0.30;0.30;;;;;;;;;;1757586;81;26342;-33
2022/01/04 05:21:12;;;;;;;0.20;0.20;;;;;;;;;;1766498;80;26740;-33
2022/01/04 05:23:39;;;;;;;0.50;0.50;;;;;;;;;;1757733;80;26385;-32
2022/01/04 05:26:06;;;;;;;0.40;0.40;;;;;;;;;;1756370;80;26302;-34
2022/01/04 05:28:34;;;;;;;0.20;0.20;;;;;;;;;;1748966;80;26352;-33
2022/01/04 05:31:01;;;;;;;0.20;0.20;;;;;;;;;;1757874;81;26283;-32
2022/01/04 05:33:29;;;;;;;0.33;0.25;;;;;;;;;;1747273;80;26283;-32
2022/01/04 05:35:56;;;;;;;0.40;0.40;;;;;;;;;;1760977;81;26365;-33
2022/01/04 05:38:23;;;;;;;0.30;0.30;;;;;;;;;;1752089;80;26306;-34
2022/01/04 05:40:50;;;;;;;0.68;0.20;;;;;;;;;;1762960;80;26276;-32
2022/01/04 05:43:18;;;;;;;0.30;0.30;;;;;;;;;;1761538;80;26415;-32
2022/01/04 05:45:45;;;;;;;0.10;0.10;;;;;;;;;;1743342;80;26706;-32
2022/01/04 05:48:12;;;;;;;1.65;0.30;;;;;;;;;;1744791;80;26307;-31
2022/01/04 05:50:42;;;;;;;0.20;0.20;;;;;;;;;;1768733;79;26386;-32
2022/01/04 05:53:09;;;;;;;0.15;0.15;;;;;;;;;;1764728;80;26893;-32
2022/01/04 05:55:36;;;;;;;0.20;0.20;;;;;;;;;;1754570;80;26774;-34
2022/01/04 05:58:03;;;;;;;0.30;0.30;;;;;;;;;;1742439;80;26810;-32
2022/01/04 06:00:31;;;;;;;0.30;0.30;;;;;;;;;;1772212;79;26546;-34
2022/01/04 06:03:01;;;;;;;0.13;0.13;;;;;;;;;;1746974;80;26275;-32
2022/01/04 06:05:28;;;;;;;0.25;0.25;;;;;;;;;;1745928;80;26310;-36
2022/01/04 06:07:56;;;;;;;0.23;0.23;;;;;;;;;;1749550;80;26302;-33
2022/01/04 06:10:23;;;;;;;0.30;0.30;;;;;;;;;;1774885;79;26306;-32
2022/01/04 06:15:20;;;;;;;0.20;0.20;;;;;;;;;;1759564;80;26695;-31
2022/01/04 06:17:50;;;;;;;0.20;0.20;;;;;;;;;;1742610;80;26897;-32
2022/01/04 06:20:20;;;;;;;0.20;0.20;;;;;;;;;;1744152;80;26290;-35
2022/01/04 06:22:48;;;;;;;0.40;0.40;;;;;;;;;;1768253;80;26315;-35
2022/01/04 06:25:17;;;;;;;0.30;0.30;;;;;;;;;;1759206;80;26306;-33
2022/01/04 06:27:45;;;;;;;0.25;0.25;;;;;;;;;;1757644;79;26867;-32
2022/01/04 06:30:19;;;;;;;0.23;0.23;;;;;;;;;;1762308;80;26357;-31
2022/01/04 06:32:47;;;;;;;0.20;0.20;;;;;;;;;;1765269;80;26287;-34
2022/01/04 06:35:14;;;;;;;0.20;0.20;;;;;;;;;;1752906;80;26735;-31
2022/01/04 06:37:43;;;;;;;0.28;0.28;;;;;;;;;;1760046;79;26349;-32
2022/01/04 06:40:11;;;;;;;0.20;0.17;;;;;;;;;;1755515;80;26325;-34
2022/01/04 06:42:38;;;;;;;0.10;0.10;;;;;;;;;;1759244;80;26785;-34
2022/01/04 06:45:06;;;;;;;0.20;0.20;;;;;;;;;;1757912;80;26358;-35
2022/01/04 06:47:34;;;;;;;0.20;0.20;;;;;;;;;;1769631;79;26837;-33
2022/01/04 06:50:01;;;;;;;0.30;0.30;;;;;;;;;;1766928;79;26410;-32
2022/01/04 06:52:29;;;;;;;0.20;0.20;;;;;;;;;;1761400;80;26844;-32
2022/01/04 06:54:56;;;;;;;0.30;0.30;;;;;;;;;;1772297;80;26841;-33
2022/01/04 06:57:23;;;;;;;0.55;0.30;;;;;;;;;;1762144;80;26285;-32
2022/01/04 06:59:51;;;;;;;0.10;0.10;;;;;;;;;;1773576;79;26359;-33
2022/01/04 07:02:18;;;;;;;0.30;0.30;;;;;;;;;;1772232;78;26419;-35
2022/01/04 07:04:45;;;;;;;0.20;0.20;;;;;;;;;;1772458;80;26317;-32
2022/01/04 07:07:13;;;;;;;0.20;0.20;;;;;;;;;;1770555;80;26820;-33
2022/01/04 07:09:41;;;;;;;0.20;0.20;;;;;;;;;;1769309;79;26897;-34
2022/01/04 07:12:09;;;;;;;0.20;0.20;;;;;;;;;;1775279;80;26365;-35
2022/01/04 07:14:37;;;;;;;1.00;0.20;;;;;;;;;;1768108;80;26650;-33
2022/01/04 07:17:04;;;;;;;0.30;0.30;;;;;;;;;;1770880;79;26718;-32
2022/01/04 07:19:31;;;;;;;0.28;0.28;;;;;;;;;;1767557;80;26287;-35
2022/01/04 07:21:58;;;;;;;0.10;0.10;;;;;;;;;;1779107;79;26326;-31
2022/01/04 07:24:26;;;;;;;0.23;0.23;;;;;;;;;;1769323;80;26368;-35
2022/01/04 07:26:53;;;;;;;0.13;0.13;;;;;;;;;;1772123;80;26369;-31
2022/01/04 07:29:20;;;;;;;0.17;0.17;;;;;;;;;;1775330;79;26334;-32
2022/01/04 07:31:48;;;;;;;0.10;0.10;;;;;;;;;;1765803;79;26757;-32
2022/01/04 07:34:16;;;;;;;0.20;0.20;;;;;;;;;;1769206;80;26357;-32
2022/01/04 07:36:43;;;;;;;0.20;0.20;;;;;;;;;;1772080;80;26391;-33
2022/01/04 07:39:10;;;;;;;1.40;0.20;;;;;;;;;;1771896;80;26356;-33
2022/01/04 07:41:37;;;;;;;0.30;0.30;;;;;;;;;;1774091;79;26259;-33
2022/01/04 07:44:05;;;;;;;0.47;0.20;;;;;;;;;;1773930;79;26287;-32
2022/01/04 07:46:32;;;;;;;0.28;0.28;;;;;;;;;;1770047;79;26302;-33
2022/01/04 07:48:59;;;;;;;1.35;0.20;;;;;;;;;;1770177;79;26955;-33
2022/01/04 07:51:28;;;;;;;0.47;0.47;;;;;;;;;;1772733;79;26302;-32
2022/01/04 07:53:55;;;;;;;0.65;0.23;;;;;;;;;;1779351;79;26287;-33
2022/01/04 07:56:23;;;;;;;2.20;0.40;;;;;;;;;;1775516;79;26318;-31
2022/01/04 07:58:50;;;;;;;3.17;0.42;;;;;;;;;;1774803;79;26279;-35
2022/01/04 08:01:18;;;;;;;2.42;0.40;;;;;;;;;;1783305;77;26648;-36
2022/01/04 08:03:45;;;;;;;0.85;0.35;;;;;;;;;;1781863;79;26263;-33
2022/01/04 08:06:12;;;;;;;1.70;0.30;;;;;;;;;;1779498;79;26314;-33
2022/01/04 08:08:40;;;;;;;0.33;0.20;;;;;;;;;;1767900;80;26279;-33
2022/01/04 08:11:08;;;;;;;1.40;0.28;;;;;;;;;;1790166;79;26290;-33
2022/01/04 08:13:36;;;;;;;0.20;0.20;;;;;;;;;;1770904;79;27025;-35
2022/01/04 08:16:04;;;;;;;0.30;0.30;;;;;;;;;;1765264;79;26348;-33
2022/01/04 08:18:31;;;;;;;0.30;0.25;;;;;;;;;;1762693;79;26303;-34
2022/01/04 08:20:58;;;;;;;0.37;0.28;;;;;;;;;;1770947;79;26354;-32
2022/01/04 08:23:26;;;;;;;1.35;0.37;;;;;;;;;;1773352;79;26307;-32
2022/01/04 08:25:54;;;;;;;0.30;0.30;;;;;;;;;;1775029;79;26360;-33
2022/01/04 08:28:22;;;;;;;0.23;0.23;;;;;;;;;;1773018;79;26351;-32
2022/01/04 08:30:50;;;;;;;1.65;0.35;;;;;;;;;;1767829;79;26297;-35
2022/01/04 08:33:18;;;;;;;0.30;0.30;;;;;;;;;;1768759;79;26281;-30
2022/01/04 08:35:45;;;;;;;5.22;0.45;;;;;;;;;;1773367;79;26230;-33
2022/01/04 08:38:13;;;;;;;0.70;0.35;;;;;;;;;;1779658;79;27493;-33
2022/01/04 08:40:40;;;;;;;0.50;0.50;;;;;;;;;;1779805;79;26263;-32
2022/01/04 08:43:08;;;;;;;0.37;0.37;;;;;;;;;;1771850;79;26309;-32
2022/01/04 08:45:35;;;;;;;1.12;0.30;;;;;;;;;;1775140;79;26705;-32
2022/01/04 08:48:04;;;;;;;0.45;0.40;;;;;;;;;;1782941;79;26259;-32
2022/01/04 08:50:31;;;;;;;0.30;0.30;;;;;;;;;;1773143;79;26360;-36
2022/01/04 08:52:59;;;;;;;0.85;0.30;;;;;;;;;;1776685;78;26993;-35
2022/01/04 08:55:26;;;;;;;0.30;0.30;;;;;;;;;;1793413;78;26276;-33
2022/01/04 08:57:53;;;;;;;1.25;0.28;;;;;;;;;;1788665;78;26281;-33
2022/01/04 09:00:21;;;;;;;1.00;0.70;;;;;;;;;;1791292;78;26326;-33
2022/01/04 09:02:48;;;;;;;0.33;0.33;;;;;;;;;;1793134;78;26714;-35
2022/01/04 09:05:15;;;;;;;0.33;0.30;;;;;;;;;;1783385;78;26742;-32
2022/01/04 09:07:42;;;;;;;0.68;0.40;;;;;;;;;;1793594;78;26282;-35
2022/01/04 09:10:10;;;;;;;0.30;0.30;;;;;;;;;;1790409;78;26349;-32
2022/01/04 09:12:58;;;;;;;0.37;0.37;;;;;;;;;;1788419;78;25975;-36
2022/01/04 09:15:46;;;;;;;0.40;0.40;;;;;;;;;;1776653;80;26702;-34
2022/01/04 09:20:47;;;;;;;0.40;0.40;;;;;;;;;;1776409;78;26324;-32
2022/01/04 09:23:21;;;;;;;0.82;0.53;;;;;;;;;;1777293;80;26668;-33
2022/01/04 09:25:46;;;;;;;0.50;0.50;;;;;;;;;;1796557;79;26321;-36
2022/01/04 09:28:14;;;;;;;0.45;0.45;;;;;;;;;;1778857;80;26285;-35
2022/01/04 09:30:42;;;;;;;0.35;0.35;;;;;;;;;;1795026;79;26286;-33
2022/01/04 09:33:09;;;;;;;0.40;0.37;;;;;;;;;;1788044;80;26270;-32
2022/01/04 09:35:37;;;;;;;0.80;0.40;;;;;;;;;;1790993;78;26391;-32
2022/01/04 09:38:05;;;;;;;1.62;0.40;;;;;;;;;;1791275;78;26901;-32
2022/01/04 09:40:35;;;;;;;0.40;0.40;;;;;;;;;;1793709;78;26361;-32
2022/01/04 09:43:06;;;;;;;0.65;0.42;;;;;;;;;;1796970;80;26837;-35
2022/01/04 09:45:34;;;;;;;0.50;0.50;;;;;;;;;;1797157;80;26800;-33
2022/01/04 09:48:02;;;;;;;0.40;0.40;;;;;;;;;;1787484;78;26309;-32
2022/01/04 09:50:32;;;;;;;0.40;0.40;;;;;;;;;;1786286;78;26420;-32
2022/01/04 09:53:00;;;;;;;1.95;0.40;;;;;;;;;;1792739;80;26274;-33
2022/01/04 09:55:27;;;;;;;1.20;0.50;;;;;;;;;;1769565;81;26366;-32
2022/01/04 09:57:54;;;;;;;0.37;0.33;;;;;;;;;;1768940;81;26383;-35
2022/01/04 10:00:23;;;;;;;0.53;0.50;;;;;;;;;;1788432;79;26291;-35
2022/01/04 10:02:50;;;;;;;1.95;0.70;;;;;;;;;;1771957;79;26371;-33
2022/01/04 10:05:19;;;;;;;3.02;0.60;;;;;;;;;;1764681;80;26655;-35
2022/01/04 10:07:47;;;;;;;0.60;0.60;;;;;;;;;;1760815;79;26364;-33
2022/01/04 10:10:18;;;;;;;3.50;0.62;;;;;;;;;;1767657;79;27535;-34
2022/01/04 10:12:53;;;;;;;2.67;0.53;;;;;;;;;;1759335;81;26291;-31
2022/01/04 10:15:31;;;;;;;1.07;0.60;;;;;;;;;;1759408;81;26267;-32
2022/01/04 10:18:00;;;;;;;5.87;0.80;;;;;;;;;;1759529;80;26283;-32
2022/01/04 10:20:27;;;;;;;1.67;0.50;;;;;;;;;;1759738;79;26297;-32
2022/01/04 10:22:55;;;;;;;1.55;0.68;;;;;;;;;;1768644;81;26346;-36
2022/01/04 10:25:22;;;;;;;2.50;0.53;;;;;;;;;;1742652;81;26282;-33
2022/01/04 10:27:50;;;;;;;2.08;0.55;;;;;;;;;;1742726;81;26309;-33
2022/01/04 10:30:26;;;;;;;1.57;0.57;;;;;;;;;;1758141;79;26916;-35
2022/01/04 10:32:55;;;;;;;2.87;0.55;;;;;;;;;;1769792;81;26361;-32
2022/01/04 10:35:24;;;;;;;1.95;0.60;;;;;;;;;;1748699;79;26354;-35
2022/01/04 10:37:52;;;;;;;3.00;0.60;;;;;;;;;;1762783;80;26276;-34
2022/01/04 10:40:20;;;;;;;0.50;0.40;;;;;;;;;;1766411;80;26272;-32
2022/01/04 10:42:47;;;;;;;1.05;0.50;;;;;;;;;;1768124;80;26806;-32
2022/01/04 10:45:19;;;;;;;1.37;0.50;;;;;;;;;;1745435;81;26302;-36
2022/01/04 10:47:46;;;;;;;1.47;0.62;;;;;;;;;;1753922;79;26300;-33
2022/01/04 10:50:14;;;;;;;1.50;0.40;;;;;;;;;;1755140;79;26755;-33
2022/01/04 10:52:41;;;;;;;1.77;0.70;;;;;;;;;;1785646;79;26334;-36
2022/01/04 10:55:15;;;;;;;2.58;0.60;;;;;;;;;;1770006;80;26319;-33
2022/01/04 10:57:43;;;;;;;3.22;0.78;;;;;;;;;;1770463;80;26283;-35
2022/01/04 11:00:15;;;;;;;2.12;0.47;;;;;;;;;;1773441;79;26850;-32
2022/01/04 11:02:42;;;;;;;1.10;0.40;;;;;;;;;;1792265;79;26438;-33
2022/01/04 11:05:13;;;;;;;2.12;0.50;;;;;;;;;;1777631;79;26295;-32
2022/01/04 11:07:59;;;;;;;1.22;0.88;;;;;;;;;;1743391;81;27431;-32
2022/01/04 11:10:28;;;;;;;3.30;0.40;;;;;;;;;;1761483;79;26284;-34
2022/01/04 11:12:58;;;;;;;0.50;0.50;;;;;;;;;;1763625;81;26348;-33
2022/01/04 11:15:27;;;;;;;2.33;0.60;;;;;;;;;;1764603;80;26404;-32
2022/01/04 11:17:56;;;;;;;0.93;0.50;;;;;;;;;;1764674;81;26830;-36
2022/01/04 11:20:24;;;;;;;0.70;0.70;;;;;;;;;;1770696;80;26260;-32
2022/01/04 11:22:51;;;;;;;0.50;0.50;;;;;;;;;;1785716;80;26269;-33
2022/01/04 11:25:23;;;;;;;1.25;0.55;;;;;;;;;;1753153;80;26220;-31
2022/01/04 11:27:50;;;;;;;0.50;0.50;;;;;;;;;;1765733;81;26315;-32
2022/01/04 11:30:19;;;;;;;2.95;0.57;;;;;;;;;;1753040;80;26279;-32
2022/01/04 11:32:48;;;;;;;4.67;0.53;;;;;;;;;;1766452;80;26405;-33
2022/01/04 11:35:21;;;;;;;0.37;0.30;;;;;;;;;;1753136;81;26351;-33
2022/01/04 11:37:58;;;;;;;1.35;0.62;;;;;;;;;;1760907;80;26302;-33
2022/01/04 11:40:26;;;;;;;0.70;0.55;;;;;;;;;;1761957;79;26291;-33
2022/01/04 11:42:55;;;;;;;1.60;0.50;;;;;;;;;;1754648;81;26285;-33
2022/01/04 11:45:38;;;;;;;0.42;0.40;;;;;;;;;;1744571;80;26420;-32
2022/01/04 11:48:25;;;;;;;3.42;0.50;;;;;;;;;;1765557;79;26279;-33
2022/01/04 11:50:56;;;;;;;1.10;0.50;;;;;;;;;;1763201;79;26594;-33
2022/01/04 11:53:24;;;;;;;0.62;0.60;;;;;;;;;;1761410;80;27251;-32
2022/01/04 11:55:56;;;;;;;0.50;0.50;;;;;;;;;;1745152;80;26442;-34
2022/01/04 11:58:27;;;;;;;0.78;0.50;;;;;;;;;;1744485;80;27426;-33
2022/01/04 12:01:00;;;;;;;2.27;0.50;;;;;;;;;;1749713;80;26278;-34
2022/01/04 12:03:29;;;;;;;1.07;0.65;;;;;;;;;;1746082;80;26309;-35
2022/01/04 12:05:58;;;;;;;0.50;0.50;;;;;;;;;;1748826;80;26262;-32
2022/01/04 12:08:28;;;;;;;1.12;0.50;;;;;;;;;;1745430;80;26572;-31
2022/01/04 12:10:57;;;;;;;0.50;0.50;;;;;;;;;;1743511;80;26344;-32
2022/01/04 12:13:25;;;;;;;0.60;0.40;;;;;;;;;;1745091;80;26431;-35
2022/01/04 12:15:57;;;;;;;0.50;0.50;;;;;;;;;;1746739;80;27537;-32
2022/01/04 12:18:26;;;;;;;1.30;0.40;;;;;;;;;;1752271;80;26278;-31
2022/01/04 12:20:54;;;;;;;0.57;0.57;;;;;;;;;;1745089;80;26680;-33
2022/01/04 12:23:26;;;;;;;1.32;0.65;;;;;;;;;;1748475;80;26282;-34
2022/01/04 12:26:12;;;;;;;0.70;0.65;;;;;;;;;;1748671;80;26274;-33
2022/01/04 12:28:40;;;;;;;1.07;0.62;;;;;;;;;;1745620;80;26309;-32
2022/01/04 12:31:23;;;;;;;1.17;0.68;;;;;;;;;;1743537;80;26290;-32
2022/01/04 12:33:48;;;;;;;0.55;0.55;;;;;;;;;;1742395;80;26738;-33
2022/01/04 12:36:34;;;;;;;1.20;0.60;;;;;;;;;;1745183;80;26301;-33
2022/01/04 12:39:03;;;;;;;0.82;0.57;;;;;;;;;;1744972;80;26805;-32
2022/01/04 12:41:31;;;;;;;0.50;0.50;;;;;;;;;;1752710;80;26274;-32
2022/01/04 12:43:59;;;;;;;1.02;0.60;;;;;;;;;;1747171;80;26703;-35
2022/01/04 12:46:27;;;;;;;0.50;0.50;;;;;;;;;;1748077;80;26286;-31
2022/01/04 12:48:56;;;;;;;0.82;0.82;;;;;;;;;;1745657;80;26335;-32
2022/01/04 12:51:24;;;;;;;0.95;0.55;;;;;;;;;;1744332;80;26316;-34
2022/01/04 12:53:53;;;;;;;1.12;0.60;;;;;;;;;;1744893;80;26610;-33
2022/01/04 12:56:21;;;;;;;2.58;0.47;;;;;;;;;;1742639;80;26336;-31
2022/01/04 12:58:48;;;;;;;0.53;0.50;;;;;;;;;;1743109;80;26249;-33
2022/01/04 13:01:17;;;;;;;1.22;0.68;;;;;;;;;;1769902;80;26722;-33
2022/01/04 13:03:44;;;;;;;0.68;0.60;;;;;;;;;;1744420;80;26343;-32
2022/01/04 13:06:12;;;;;;;2.85;0.60;;;;;;;;;;1741732;80;26288;-29
2022/01/04 13:08:39;;;;;;;1.85;0.70;;;;;;;;;;1731295;80;26284;-30
2022/01/04 13:11:07;;;;;;;1.42;0.90;;;;;;;;;;1751459;80;26296;-35
2022/01/04 13:13:35;;;;;;;1.12;0.60;;;;;;;;;;1742365;80;26386;-32
2022/01/04 13:16:22;;;;;;;2.50;0.75;;;;;;;;;;1747015;80;26390;-33
2022/01/04 13:18:50;;;;;;;1.37;0.70;;;;;;;;;;1745736;80;26360;-33
2022/01/04 13:21:19;;;;;;;0.68;0.65;;;;;;;;;;1750185;80;26317;-33
2022/01/04 13:23:47;;;;;;;0.65;0.50;;;;;;;;;;1742467;81;26871;-35
2022/01/04 13:26:14;;;;;;;1.32;0.70;;;;;;;;;;1754812;80;26270;-32
2022/01/04 13:28:41;;;;;;;0.50;0.50;;;;;;;;;;1744917;80;26294;-35
2022/01/04 13:31:10;;;;;;;4.28;1.10;;;;;;;;;;1748943;80;26296;-33
2022/01/04 13:33:38;;;;;;;4.70;0.90;;;;;;;;;;1734229;80;26356;-33
2022/01/04 13:36:08;;;;;;;0.68;0.65;;;;;;;;;;1741909;80;26286;-32
2022/01/04 13:38:37;;;;;;;1.00;0.70;;;;;;;;;;1763160;80;26297;-34
2022/01/04 13:41:05;;;;;;;1.85;0.60;;;;;;;;;;1733796;80;26360;-32
2022/01/04 13:43:35;;;;;;;0.53;0.47;;;;;;;;;;1750675;80;26345;-35
2022/01/04 13:46:12;;;;;;;1.90;0.62;;;;;;;;;;1745694;80;26339;-36
2022/01/04 13:48:35;;;;;;;0.57;0.57;;;;;;;;;;1738807;80;26298;-33
2022/01/04 13:51:09;;;;;;;1.40;0.60;;;;;;;;;;1758755;80;26368;-36
2022/01/04 13:53:44;;;;;;;2.00;0.70;;;;;;;;;;1747875;80;26372;-33
2022/01/04 13:56:14;;;;;;;1.50;0.70;;;;;;;;;;1738464;80;26387;-32
2022/01/04 13:58:52;;;;;;;0.80;0.80;;;;;;;;;;1749682;82;26301;-33
2022/01/04 14:01:21;;;;;;;2.70;0.72;;;;;;;;;;1768401;80;26865;-33
2022/01/04 14:03:50;;;;;;;1.00;0.90;;;;;;;;;;1751181;80;26781;-33
2022/01/04 14:06:19;;;;;;;3.60;1.00;;;;;;;;;;1740980;80;26304;-34
2022/01/04 14:08:47;;;;;;;1.37;0.72;;;;;;;;;;1739066;81;26732;-35
2022/01/04 14:11:16;;;;;;;2.12;0.90;;;;;;;;;;1751113;80;26285;-32
2022/01/04 14:13:44;;;;;;;3.83;1.00;;;;;;;;;;1747498;80;26368;-32
2022/01/04 14:16:12;;;;;;;1.20;0.70;;;;;;;;;;1750503;80;27409;-33
2022/01/04 14:18:57;;;;;;;5.30;0.90;;;;;;;;;;1742929;80;26300;-32
2022/01/04 14:21:35;;;;;;;2.45;0.80;;;;;;;;;;1746622;80;26297;-32
2022/01/04 14:24:21;;;;;;;1.32;0.88;;;;;;;;;;1751170;80;26250;-33
2022/01/04 14:26:48;;;;;;;2.17;1.00;;;;;;;;;;1744951;80;26837;-32
2022/01/04 14:29:17;;;;;;;4.17;0.72;;;;;;;;;;1752561;82;27512;-33
2022/01/04 14:31:44;;;;;;;2.25;0.78;;;;;;;;;;1729109;82;26793;-33
2022/01/04 14:34:11;;;;;;;0.70;0.70;;;;;;;;;;1751197;80;26282;-33
2022/01/04 14:36:38;;;;;;;0.75;0.75;;;;;;;;;;1756828;80;26360;-34
2022/01/04 14:39:09;;;;;;;1.62;1.00;;;;;;;;;;1757361;79;26272;-33
2022/01/04 14:41:37;;;;;;;1.65;0.80;;;;;;;;;;1745512;82;26715;-33
2022/01/04 14:44:04;;;;;;;0.85;0.70;;;;;;;;;;1747300;82;26770;-33
2022/01/04 14:46:32;;;;;;;1.45;0.80;;;;;;;;;;1752993;80;26350;-35
2022/01/04 14:48:59;;;;;;;1.55;0.72;;;;;;;;;;1745100;80;26305;-33
2022/01/04 14:51:26;;;;;;;2.15;0.80;;;;;;;;;;1751274;80;26284;-35
2022/01/04 14:53:54;;;;;;;1.45;0.80;;;;;;;;;;1740207;80;26284;-32
2022/01/04 14:56:21;;;;;;;1.27;0.70;;;;;;;;;;1755164;79;26402;-33
2022/01/04 14:58:48;;;;;;;0.85;0.70;;;;;;;;;;1756865;80;26394;-34